• Join FlightAware (Why Join?)
  • Login
  • US Flag 
01:13AM EDT


 

Airport Tracker/Info


-or-


 

Live Flight TrackerFlight Track Log ✈ FFT188 ✈ 07-Feb-2014 ✈ KDEN - KFAR

Flight Track Log - Related Links

Times and Time Zones

All times are in EST time to prevent confusion due to time zone crossing. See the FFT188 flight status page for this flight to view local times or setup timezone preferences in your user account.

Time Position Orientation Groundspeed Altitude Reporting Facility
EST Latitude Longitude Course Direction KTS MPH feet Rate Location/Type
09:06PM 39.9167 -104.6833 21° North 177 204 6,800  Level Denver TRACON
09:07PM 39.9833 -104.6500 21° North 247 284 8,600 2,280 Climbing Denver TRACON
09:08PM 40.0078 -104.6186 45° Northeast 245 282 10,300 2,340 Climbing Denver Center
09:08PM 40.0333 -104.6000 29° Northeast 260 299 11,000 1,500 Climbing Denver TRACON
09:09PM 40.1167 -104.5500 25° Northeast 332 382 12,500 1,620 Climbing Denver TRACON
09:10PM 40.1706 -104.5114 29° Northeast 347 399 13,600 2,220 Climbing Denver Center
09:11PM 40.2650 -104.4464 28° Northeast 381 438 16,100 2,760 Climbing Denver Center
09:12PM 40.3581 -104.3828 28° Northeast 377 434 19,300 2,820 Climbing Denver Center
09:13PM 40.4442 -104.3253 27° Northeast 366 421 22,000 2,220 Climbing Denver Center
09:14PM 40.5350 -104.2658 26° Northeast 365 420 23,900 1,860 Climbing Denver Center
09:15PM 40.6514 -104.1950 25° Northeast 384 442 25,900 1,680 Climbing Denver Center
09:16PM 40.7519 -104.1386 23° Northeast 391 450 27,400 1,380 Climbing Denver Center
09:17PM 40.8503 -104.0611 31° Northeast 422 486 28,800 1,260 Climbing Denver Center
09:18PM 40.9458 -103.9606 38° Northeast 439 505 30,100 1,140 Climbing Denver Center
09:19PM 41.0450 -103.8589 38° Northeast 441 507 31,200 1,020 Climbing Denver Center
09:20PM 41.1550 -103.7414 39° Northeast 453 521 32,300 900 Climbing Denver Center
09:21PM 41.2522 -103.6392 38° Northeast 465 535 33,100 960 Climbing Denver Center
09:22PM 41.3506 -103.5347 39° Northeast 473 544 34,300 1,260 Climbing Denver Center
09:23PM 41.4644 -103.4131 39° Northeast 471 542 35,700 840 Climbing Denver Center
09:24PM 41.5603 -103.3114 38° Northeast 466 536 36,100 600 Climbing Denver Center
09:25PM 41.6753 -103.1878 39° Northeast 476 548 37,000 420 Climbing Denver Center
09:26PM 41.7733 -103.0811 39° Northeast 475 547 37,000  Level Denver Center
09:27PM 41.8875 -102.9575 39° Northeast 474 545 37,000  Level Denver Center
09:28PM 41.9861 -102.8508 39° Northeast 477 549 37,100  Climbing Denver Center
09:29PM 42.1014 -102.7236 39° Northeast 479 551 37,000 -60 Descending Denver Center
09:30PM 42.2006 -102.6156 39° Northeast 482 555 37,000  Level Denver Center
09:31PM 42.3006 -102.5044 39° Northeast 486 559 37,000  Level Denver Center
09:32PM 42.4175 -102.3772 39° Northeast 484 557 37,000  Level Denver Center
09:33PM 42.5139 -102.2689 40° Northeast 476 548 37,000  Level Denver Center
09:34PM 42.6283 -102.1406 40° Northeast 478 550 37,000  Level Denver Center
09:35PM 42.7264 -102.0289 40° Northeast 481 554 37,000  Level Denver Center
09:36PM 42.8419 -101.8997 39° Northeast 481 554 37,100  Climbing Denver Center
09:37PM 42.9511 -101.7756 40° Northeast 480 552 37,000 -60 Descending Denver Center
09:39PM 43.0544 -101.6594 39° Northeast 479 551 37,000  Level Denver Center
09:40PM 43.1422 -101.5581 40° Northeast 477 549 37,000  Level Denver Center
09:41PM 43.2642 -101.4181 40° Northeast 477 549 37,000  Level Denver Center
09:42PM 43.3656 -101.2994 40° Northeast 480 552 37,000  Level Denver Center
09:43PM 43.4678 -101.1808 40° Northeast 482 555 37,000  Level Denver Center
09:44PM 43.5692 -101.0633 40° Northeast 479 551 37,000  Level Denver Center
09:45PM 43.6700 -100.9425 41° Northeast 481 554 37,000  Level Denver Center
09:46PM 43.7728 -100.8239 40° Northeast 483 556 37,000  Level Denver Center
09:47PM 43.8942 -100.6789 41° Northeast 482 555 37,000  Level Denver Center
09:48PM 44.0361 -100.5103 40° Northeast 481 554 37,000  Level Minneapolis Center
09:49PM 44.1378 -100.3900 40° Northeast 483 556 37,000  Level Minneapolis Center
09:50PM 44.2383 -100.2694 41° Northeast 479 551 37,000  Level Minneapolis Center
09:51PM 44.3394 -100.1481 41° Northeast 481 554 37,000  Level Minneapolis Center
09:52PM 44.4383 -100.0275 41° Northeast 478 550 37,000  Level Minneapolis Center
09:53PM 44.5381 -99.9067 41° Northeast 477 549 37,000  Level Minneapolis Center
09:54PM 44.6372 -99.7853 41° Northeast 478 550 37,000  Level Minneapolis Center
09:55PM 44.7356 -99.6639 41° Northeast 477 549 37,000  Level Minneapolis Center
09:56PM 44.8544 -99.5183 41° Northeast 478 550 37,000 -60 Level Minneapolis Center
09:57PM 44.9525 -99.3947 42° Northeast 479 551 36,900 -300 Descending Minneapolis Center
09:58PM 45.0508 -99.2717 41° Northeast 478 550 36,400 -540 Descending Minneapolis Center
09:59PM 45.1492 -99.1483 41° Northeast 477 549 35,900 -540 Descending Minneapolis Center
10:00PM 45.2458 -99.0250 42° Northeast 473 544 35,400 -480 Descending Minneapolis Center
10:01PM 45.3450 -98.8994 42° Northeast 477 549 35,000 -240 Descending Minneapolis Center
10:02PM 45.4444 -98.7739 42° Northeast 478 550 35,000  Level Minneapolis Center
10:03PM 45.5422 -98.6475 42° Northeast 479 551 35,000  Level Minneapolis Center
10:04PM 45.6653 -98.4975 40° Northeast 484 557 35,000  Level Minneapolis Center
10:06PM 45.7639 -98.3731 41° Northeast 478 550 35,000 -1,260 Level Minneapolis Center
10:07PM 45.8614 -98.2456 42° Northeast 476 548 32,500 -2,760 Descending Minneapolis Center
10:08PM 45.9572 -98.1214 42° Northeast 470 541 29,500 -2,880 Descending Minneapolis Center
10:09PM 46.0403 -98.0022 45° Northeast 464 534 26,700 -2,880 Descending Minneapolis Center
10:10PM 46.1314 -97.8858 41° Northeast 446 513 23,700 -2,940 Descending Minneapolis Center
10:11PM 46.2192 -97.7678 43° Northeast 436 502 20,700 -3,180 Descending Minneapolis Center
10:12PM 46.3217 -97.6311 43° Northeast 417 480 17,200 -3,180 Descending Minneapolis Center
10:13PM 46.4025 -97.5214 43° Northeast 414 476 14,300 -2,880 Descending Minneapolis Center
10:14PM 46.4939 -97.4158 38° Northeast 402 463 11,400 -1,740 Descending Minneapolis Center
10:15PM 46.5750 -97.3211 39° Northeast 360 414 10,800 -840 Descending Minneapolis Center
10:16PM 46.6386 -97.2481 38° Northeast 311 358 9,800 -1,320 Descending Minneapolis Center
10:17PM 46.7033 -97.1733 38° Northeast 289 333 8,200 -1,620 Descending Minneapolis Center
10:18PM 46.7658 -97.1000 39° Northeast 278 320 6,600 -1,320 Descending Minneapolis Center
10:19PM 46.8208 -97.0361 38° Northeast 267 307 5,500 -960 Descending Minneapolis Center
10:20PM 46.8739 -96.9733 39° Northeast 243 280 4,700 -900 Descending Minneapolis Center
10:21PM 46.9231 -96.9208 36° Northeast 216 249 3,700 -960 Descending Minneapolis Center
10:22PM 46.9667 -96.8936 23° Northeast 177 204 2,800 -1,020 Descending Minneapolis Center
10:23PM 46.9683 -96.8283 88° East 160 184 1,700 -1,140 Descending Minneapolis Center
10:25PM 46.9167 -96.8000 46° Northeast  Level FlightAware Approximate
10:32PM 46.9207 -96.8158 46° Northeast  Level Estimated
10:33PM 46.9207 -96.8158 46° Northeast  Level Estimated